Time;durP1;ratioP1;P1;durP2;ratioP2;P2;SDS_P1;SDS_P2;PMS_P1;PMS_P2;Temp;Humidity;BMP_temperature;BMP_pressure;BME280_temperature;BME280_humidity;BME280_pressure;Samples;Min_cycle;Max_cycle;Signal;HPM_P1;HPM_P2
2023/10/17 00:00:25;;;;;;;8.48;6.18;;;;;;;5.40;100.00;100805.09;5002506;28;20092;-82
2023/10/17 00:02:54;;;;;;;9.60;6.20;;;;;;;5.27;100.00;100801.84;5018920;28;20494;-83
2023/10/17 00:05:25;;;;;;;10.17;6.07;;;;;;;5.18;100.00;100795.03;5017242;28;20046;-81
2023/10/17 00:07:58;;;;;;;12.95;6.40;;;;;;;5.14;100.00;100788.09;5045084;28;20571;-80
2023/10/17 00:10:30;;;;;;;9.25;6.45;;;;;;;5.00;100.00;100776.97;5016913;28;20133;-81
2023/10/17 00:13:16;;;;;;;11.02;6.28;;;;;;;5.06;100.00;100795.22;5010782;28;20050;-80
2023/10/17 00:15:46;;;;;;;9.38;6.38;;;;;;;5.01;100.00;100791.84;5026428;28;20045;-81
2023/10/17 00:18:18;;;;;;;11.50;7.05;;;;;;;4.93;100.00;100772.72;5010347;28;20050;-82
2023/10/17 00:20:51;;;;;;;8.57;5.97;;;;;;;5.06;100.00;100783.84;5003698;28;20057;-80
2023/10/17 00:23:22;;;;;;;13.95;5.78;;;;;;;5.14;100.00;100793.34;5029655;28;20053;-83
2023/10/17 00:25:50;;;;;;;7.72;5.63;;;;;;;5.14;100.00;100779.34;5019426;28;20049;-80
2023/10/17 00:28:20;;;;;;;9.60;5.57;;;;;;;5.04;100.00;100765.50;5006658;28;20048;-80
2023/10/17 00:30:54;;;;;;;11.30;5.82;;;;;;;5.15;100.00;100784.56;5033410;28;20075;-81
2023/10/17 00:33:24;;;;;;;9.00;5.82;;;;;;;5.10;100.00;100781.16;5008903;28;20443;-81
2023/10/17 00:35:54;;;;;;;9.43;6.45;;;;;;;5.06;100.00;100779.47;5017267;28;20048;-80
2023/10/17 00:38:23;;;;;;;7.95;5.47;;;;;;;5.05;100.00;100767.22;5015900;28;20056;-83
2023/10/17 00:40:52;;;;;;;8.48;5.38;;;;;;;5.05;100.00;100766.38;5014646;28;20054;-82
2023/10/17 00:43:20;;;;;;;8.25;5.38;;;;;;;5.05;100.00;100755.88;5010688;28;20706;-81
2023/10/17 00:45:48;;;;;;;10.32;5.85;;;;;;;5.01;100.00;100769.97;5004602;28;20049;-82
2023/10/17 00:48:20;;;;;;;7.28;5.20;;;;;;;4.97;100.00;100771.78;5008567;28;20048;-80
2023/10/17 00:50:53;;;;;;;10.50;5.32;;;;;;;4.88;100.00;100769.28;5015849;28;20037;-82
2023/10/17 00:53:22;;;;;;;8.95;5.75;;;;;;;4.88;100.00;100774.53;5015719;28;20164;-81
2023/10/17 00:55:55;;;;;;;8.25;5.60;;;;;;;4.82;100.00;100767.66;5017026;28;20056;-81
2023/10/17 00:58:27;;;;;;;11.57;6.28;;;;;;;4.74;100.00;100755.56;5025776;28;20081;-81
2023/10/17 01:01:09;;;;;;;12.13;5.85;;;;;;;4.80;100.00;100768.59;5008201;28;20037;-79
2023/10/17 01:03:41;;;;;;;8.73;5.47;;;;;;;4.76;100.00;100780.88;5020754;28;20089;-79
2023/10/17 01:06:23;;;;;;;8.48;5.30;;;;;;;4.77;100.00;100781.75;5009693;28;20068;-80
2023/10/17 01:08:53;;;;;;;12.18;6.25;;;;;;;4.66;100.00;100765.34;5014765;28;20055;-83
2023/10/17 01:11:27;;;;;;;8.90;5.60;;;;;;;4.65;100.00;100777.56;5020411;28;20155;-81
2023/10/17 01:13:58;;;;;;;7.88;5.53;;;;;;;4.62;100.00;100761.03;5043782;28;20045;-80
2023/10/17 01:16:26;;;;;;;9.73;6.10;;;;;;;4.71;100.00;100772.25;5028089;28;20045;-77
2023/10/17 01:18:54;;;;;;;9.05;5.72;;;;;;;4.71;100.00;100767.00;5031712;28;20025;-79
2023/10/17 01:21:24;;;;;;;9.93;5.55;;;;;;;4.49;100.00;100726.28;5033899;28;20040;-81
2023/10/17 01:23:52;;;;;;;7.45;5.55;;;;;;;4.59;100.00;100754.94;5027746;28;20710;-79
2023/10/17 01:26:23;;;;;;;8.23;5.57;;;;;;;4.50;100.00;100741.97;5032573;28;20065;-82
2023/10/17 01:28:53;;;;;;;9.60;6.00;;;;;;;4.59;100.00;100751.44;5020710;28;20096;-82
2023/10/17 01:31:23;;;;;;;9.60;6.00;;;;;;;4.49;100.00;100731.53;5003034;28;20038;-82
2023/10/17 01:33:55;;;;;;;12.07;5.50;;;;;;;4.56;100.00;100747.09;5012302;28;20068;-81
2023/10/17 01:36:24;;;;;;;7.75;5.38;;;;;;;4.53;100.00;100736.69;5018602;28;20124;-81
2023/10/17 01:38:54;;;;;;;7.90;5.60;;;;;;;4.32;100.00;100708.19;4998031;28;20065;-82
2023/10/17 01:41:25;;;;;;;8.65;5.75;;;;;;;4.52;100.00;100755.94;5021170;28;20362;-81
2023/10/17 01:43:54;;;;;;;9.25;5.50;;;;;;;4.48;100.00;100759.50;5009378;28;20110;-80
2023/10/17 01:46:22;;;;;;;7.50;5.43;;;;;;;4.49;100.00;100763.84;5022927;28;20064;-81
2023/10/17 01:48:53;;;;;;;9.20;5.78;;;;;;;4.46;100.00;100770.91;5016602;28;20052;-80
2023/10/17 01:51:24;;;;;;;10.48;6.00;;;;;;;4.44;100.00;100775.28;5020846;28;20045;-82
2023/10/17 01:53:52;;;;;;;8.38;6.28;;;;;;;4.29;100.00;100768.53;5006060;28;20049;-80
2023/10/17 01:56:26;;;;;;;10.32;6.15;;;;;;;4.17;100.00;100743.38;5013620;28;20068;-81
2023/10/17 01:58:59;;;;;;;11.88;5.95;;;;;;;4.38;100.00;100771.03;5020943;28;20049;-81
2023/10/17 02:01:29;;;;;;;8.73;5.78;;;;;;;4.11;100.00;100727.75;5028232;28;20045;-79
2023/10/17 02:04:02;;;;;;;;;;;;;;;4.41;100.00;100768.34;5030035;28;20111;-79
2023/10/17 02:06:34;;;;;;;10.13;6.05;;;;;;;4.35;100.00;100752.72;5044217;28;19929;-78
2023/10/17 02:09:22;;;;;;;10.80;5.90;;;;;;;4.36;100.00;100749.22;5022735;28;20042;-79
2023/10/17 02:11:54;;;;;;;12.68;6.10;;;;;;;4.32;100.00;100750.16;5023915;28;20056;-79
2023/10/17 02:14:23;;;;;;;9.40;5.97;;;;;;;4.35;100.00;100755.34;5025277;28;20064;-78
2023/10/17 02:16:56;;;;;;;8.68;5.72;;;;;;;4.35;100.00;100746.63;5033992;28;20045;-80
2023/10/17 02:19:25;;;;;;;8.52;6.10;;;;;;;4.40;100.00;100753.53;5025456;28;20041;-80
2023/10/17 02:22:00;;;;;;;8.77;4.95;;;;;;;4.23;100.00;100726.72;5029861;28;20055;-81
2023/10/17 02:24:29;;;;;;;8.48;5.35;;;;;;;4.38;100.00;100755.31;4994267;28;20049;-79
2023/10/17 02:27:00;;;;;;;11.80;6.03;;;;;;;4.39;100.00;100764.91;5010248;28;20046;-82
2023/10/17 02:29:30;;;;;;;8.23;5.38;;;;;;;4.24;100.00;100744.16;4994528;28;20519;-79
2023/10/17 02:32:00;;;;;;;9.60;5.90;;;;;;;4.45;100.00;100771.78;5011840;28;20049;-79
2023/10/17 02:34:29;;;;;;;9.82;5.35;;;;;;;4.40;100.00;100753.53;5027857;28;20049;-79
2023/10/17 02:37:00;;;;;;;8.68;5.70;;;;;;;4.40;100.00;100750.91;5040124;28;20053;-80
2023/10/17 02:39:29;;;;;;;;;;;;;;;4.51;100.00;100755.97;5008885;28;20105;-82
2023/10/17 02:42:06;;;;;;;8.18;5.28;;;;;;;4.48;100.00;100749.00;5024563;28;19981;-80
2023/10/17 02:44:40;;;;;;;9.45;5.38;;;;;;;4.42;100.00;100728.13;5042013;28;20127;-79
2023/10/17 02:47:12;;;;;;;11.03;5.23;;;;;;;4.51;100.00;100734.97;5031752;28;20035;-80
2023/10/17 02:49:43;;;;;;;9.45;4.90;;;;;;;4.56;100.00;100741.03;5033375;28;20511;-79
2023/10/17 02:52:17;;;;;;;9.73;5.35;;;;;;;4.53;100.00;100728.81;5031740;28;20072;-80
2023/10/17 02:54:57;;;;;;;7.28;5.15;;;;;;;4.47;100.00;100715.81;5022833;28;20040;-79
2023/10/17 02:57:32;;;;;;;12.20;5.43;;;;;;;4.50;100.00;100726.25;5032973;28;20049;-80
2023/10/17 03:00:19;;;;;;;8.65;5.13;;;;;;;4.44;100.00;100726.34;5045986;28;20080;-82
2023/10/17 03:02:49;;;;;;;9.23;5.57;;;;;;;4.34;100.00;100702.94;5036707;28;20113;-79
2023/10/17 03:05:24;;;;;;;7.93;5.10;;;;;;;4.51;100.00;100725.38;5030465;28;20045;-79
2023/10/17 03:07:54;;;;;;;7.97;5.43;;;;;;;4.47;100.00;100721.06;5036533;28;20049;-78
2023/10/17 03:10:36;;;;;;;10.48;5.18;;;;;;;4.44;100.00;100713.22;5038555;28;20034;-80
2023/10/17 03:13:22;;;;;;;7.95;5.35;;;;;;;4.54;100.00;100730.56;5048714;28;20061;-80
2023/10/17 03:15:54;;;;;;;9.93;5.03;;;;;;;4.54;100.00;100727.06;5033073;28;20097;-78
2023/10/17 03:18:22;;;;;;;6.93;5.15;;;;;;;4.56;100.00;100722.66;5037756;28;20041;-80
2023/10/17 03:20:53;;;;;;;7.03;5.22;;;;;;;4.55;100.00;100724.44;5020593;28;20057;-82
2023/10/17 03:23:30;;;;;;;5.90;4.72;;;;;;;4.56;100.00;100723.50;5018341;28;20060;-80
2023/10/17 03:26:01;;;;;;;7.78;4.95;;;;;;;4.52;100.00;100713.13;4993542;28;20038;-82
2023/10/17 03:28:33;;;;;;;;;;;;;;;4.60;100.00;100711.22;5024914;28;20050;-82
2023/10/17 03:31:10;;;;;;;10.10;5.25;;;;;;;4.57;100.00;100703.38;5029614;28;19931;-79
2023/10/17 03:33:40;;;;;;;9.57;4.88;;;;;;;4.53;100.00;100696.50;5024302;28;20524;-79
2023/10/17 03:36:39;;;;;;;7.72;5.30;;;;;;;4.50;100.00;100694.78;5022750;28;20049;-80
2023/10/17 03:39:17;;;;;;;7.05;4.95;;;;;;;4.58;100.00;100713.84;5030848;28;20067;-82
2023/10/17 03:41:46;;;;;;;7.55;5.13;;;;;;;4.59;100.00;100698.97;5028726;28;20053;-78
2023/10/17 03:44:16;;;;;;;7.15;5.10;;;;;;;4.64;100.00;100699.78;5026702;28;20172;-79
2023/10/17 03:46:48;;;;;;;8.40;4.95;;;;;;;4.50;100.00;100686.91;5029758;28;20042;-77
2023/10/17 03:49:19;;;;;;;7.97;4.75;;;;;;;4.61;100.00;100704.22;5033314;28;20053;-82
2023/10/17 03:51:52;;;;;;;7.40;4.60;;;;;;;4.48;100.00;100683.44;5055490;28;20026;-78
2023/10/17 03:54:22;;;;;;;10.40;4.57;;;;;;;4.65;100.00;100713.75;5029936;28;20108;-80
2023/10/17 03:56:56;;;;;;;11.82;4.70;;;;;;;4.61;100.00;100697.22;5023201;28;20169;-79
2023/10/17 03:59:37;;;;;;;6.25;4.45;;;;;;;4.56;100.00;100685.94;5030072;28;20045;-80
2023/10/17 04:02:12;;;;;;;6.65;4.70;;;;;;;4.69;100.00;100704.94;5027226;28;20600;-81
2023/10/17 04:04:49;;;;;;;9.80;4.80;;;;;;;4.74;100.00;100705.72;5018567;28;20065;-81
2023/10/17 04:07:21;;;;;;;9.13;4.88;;;;;;;4.80;100.00;100695.13;5016240;28;20205;-79
2023/10/17 04:09:54;;;;;;;8.93;4.80;;;;;;;4.85;100.00;100693.28;5026879;28;20076;-81
2023/10/17 04:12:23;;;;;;;9.25;4.85;;;;;;;4.86;100.00;100693.25;5020564;28;20159;-80
2023/10/17 04:14:58;;;;;;;8.15;4.72;;;;;;;4.79;100.00;100682.88;5028096;28;20042;-80
2023/10/17 04:17:31;;;;;;;7.45;4.90;;;;;;;4.84;100.00;100695.03;5029143;28;20072;-80
2023/10/17 04:20:11;;;;;;;5.78;4.40;;;;;;;4.81;100.00;100688.97;5036507;28;20025;-79
2023/10/17 04:22:40;;;;;;;7.47;4.70;;;;;;;4.92;100.00;100705.38;5027652;28;20033;-79
2023/10/17 04:25:20;;;;;;;7.28;4.65;;;;;;;4.89;100.00;100702.81;5019354;28;20041;-81
2023/10/17 04:27:54;;;;;;;9.40;4.57;;;;;;;4.88;100.00;100711.56;5019474;28;20078;-81
2023/10/17 04:30:29;;;;;;;8.95;4.68;;;;;;;4.74;100.00;100687.34;5027236;28;20057;-79
2023/10/17 04:33:08;;;;;;;8.70;4.47;;;;;;;4.73;100.00;100690.88;5039421;28;20071;-79
2023/10/17 04:35:44;;;;;;;5.10;4.43;;;;;;;4.82;100.00;100691.56;5023433;28;20080;-81
2023/10/17 04:38:19;;;;;;;6.22;4.07;;;;;;;4.96;100.00;100708.81;5031633;28;20064;-80
2023/10/17 04:41:02;;;;;;;5.53;4.22;;;;;;;4.83;100.00;100692.44;5030550;28;20044;-79
2023/10/17 04:46:16;;;;;;;8.10;4.55;;;;;;;4.86;100.00;100719.50;5030766;28;20041;-78
2023/10/17 04:48:46;;;;;;;9.18;4.20;;;;;;;4.84;100.00;100728.28;5030670;28;20025;-80
2023/10/17 04:51:25;;;;;;;9.40;4.35;;;;;;;4.77;100.00;100705.66;5029897;28;20068;-82
2023/10/17 04:53:55;;;;;;;6.15;4.35;;;;;;;4.85;100.00;100724.78;5028530;28;20041;-82
2023/10/17 04:56:23;;;;;;;7.78;4.15;;;;;;;4.71;100.00;100700.53;5021027;28;20101;-80
2023/10/17 04:58:53;;;;;;;6.32;4.63;;;;;;;4.85;100.00;100725.63;5023099;28;20055;-80
2023/10/17 05:01:36;;;;;;;8.43;4.50;;;;;;;4.83;100.00;100726.56;5022727;28;20056;-80
2023/10/17 05:04:18;;;;;;;8.00;4.75;;;;;;;4.62;100.00;100711.19;5017912;28;20053;-82
2023/10/17 06:17:40;;;;;;;6.22;3.78;;;;;;;4.72;100.00;100710.97;5045545;28;20057;-81
2023/10/17 06:20:14;;;;;;;7.18;4.05;;;;;;;4.80;100.00;100732.72;5100146;28;20100;-80
2023/10/17 06:28:26;;;;;;;6.90;4.53;;;;;;;4.90;100.00;100736.03;5081983;28;20138;-82
2023/10/17 06:33:45;;;;;;;9.15;4.55;;;;;;;5.00;100.00;100729.72;5091177;28;20047;-82
2023/10/17 06:36:16;;;;;;;;;;;;;;;5.02;100.00;100737.59;5090048;28;20044;-79
2023/10/17 06:38:47;;;;;;;8.85;4.80;;;;;;;5.08;100.00;100740.06;5099972;28;19921;-78
2023/10/17 06:41:14;;;;;;;;;;;;;;;5.18;100.00;100736.41;5095763;28;20028;-78
2023/10/17 06:43:49;;;;;;;7.05;4.35;;;;;;;5.21;100.00;100737.19;5094657;28;19919;-79
2023/10/17 06:46:28;;;;;;;9.13;4.88;;;;;;;5.33;100.00;100743.09;5079140;28;20043;-78
2023/10/17 06:49:29;;;;;;;6.47;4.65;;;;;;;5.29;100.00;100727.41;5088404;28;20139;-82
2023/10/17 06:52:08;;;;;;;7.60;4.93;;;;;;;5.40;100.00;100740.31;5089537;28;20115;-82
2023/10/17 06:54:41;;;;;;;7.35;4.28;;;;;;;5.44;100.00;100734.09;5070182;28;20048;-81
2023/10/17 06:57:19;;;;;;;6.85;4.50;;;;;;;5.45;100.00;100729.72;5090330;28;20081;-78
2023/10/17 06:59:52;;;;;;;8.57;4.53;;;;;;;5.54;100.00;100721.63;5107020;28;20040;-80
2023/10/17 07:02:29;;;;;;;6.80;4.40;;;;;;;5.58;100.00;100725.94;5092819;28;20071;-81
2023/10/17 07:05:04;;;;;;;8.02;4.68;;;;;;;5.66;100.00;100728.41;5103247;28;20119;-81
2023/10/17 07:07:40;;;;;;;8.27;4.60;;;;;;;5.73;100.00;100730.00;5096092;28;20043;-82
2023/10/17 07:10:18;;;;;;;8.15;4.50;;;;;;;5.64;100.00;100703.03;5087998;28;20068;-81
2023/10/17 07:12:50;;;;;;;6.15;3.35;;;;;;;5.82;100.00;100721.91;5083397;28;20074;-82
2023/10/17 07:15:20;;;;;;;6.00;4.05;;;;;;;5.78;100.00;100707.09;5095100;28;20028;-82
2023/10/17 07:17:54;;;;;;;7.68;4.03;;;;;;;5.79;100.00;100708.84;5094665;28;20032;-78
2023/10/17 07:21:09;;;;;;;9.30;3.97;;;;;;;5.81;100.00;100701.78;5113455;28;20067;-79
2023/10/17 07:23:20;;;;;;;7.22;4.20;;;;;;;5.83;100.00;100698.19;5095816;28;20050;-82
2023/10/17 07:25:49;;;;;;;7.10;4.28;;;;;;;5.95;100.00;100702.38;5091676;28;20032;-83
2023/10/17 07:28:22;;;;;;;9.77;4.13;;;;;;;6.04;100.00;100717.06;5088369;28;20040;-81
2023/10/17 07:30:57;;;;;;;4.82;3.50;;;;;;;6.14;100.00;100710.69;5093991;28;20059;-80
2023/10/17 07:33:32;;;;;;;6.13;4.28;;;;;;;6.18;100.00;100714.97;5088291;28;20427;-81
2023/10/17 07:36:03;;;;;;;5.97;4.30;;;;;;;6.07;100.00;100702.06;5087094;28;20052;-81
2023/10/17 07:38:33;;;;;;;7.68;4.25;;;;;;;6.31;100.00;100730.41;5103076;28;20044;-82
2023/10/17 07:41:12;;;;;;;8.85;4.25;;;;;;;6.31;100.00;100725.13;5068565;28;20044;-80
2023/10/17 07:43:44;;;;;;;;;;;;;;;6.37;100.00;100724.13;5079290;28;20060;-83
2023/10/17 07:46:18;;;;;;;7.70;3.70;;;;;;;6.38;100.00;100722.38;5100377;28;19955;-81
2023/10/17 07:48:48;;;;;;;7.35;3.90;;;;;;;6.29;100.00;100715.59;5082419;28;20051;-81
2023/10/17 07:51:22;;;;;;;7.68;3.90;;;;;;;6.35;100.00;100715.41;5084366;28;20070;-82
2023/10/17 07:53:53;;;;;;;7.43;4.25;;;;;;;6.37;100.00;100718.00;5084579;28;20056;-84
2023/10/17 07:56:24;;;;;;;6.22;3.80;;;;;;;6.33;100.00;100711.94;5084742;28;20047;-82
2023/10/17 07:59:04;;;;;;;6.40;3.85;;;;;;;6.48;100.00;100724.72;5085622;28;20048;-83
2023/10/17 08:01:38;;;;;;;8.23;3.88;;;;;;;6.55;100.00;100728.09;5079513;28;20048;-84
2023/10/17 08:04:17;;;;;;;9.45;4.45;;;;;;;6.59;100.00;100730.59;5088536;28;20044;-83
2023/10/17 08:06:50;;;;;;;7.07;4.00;;;;;;;6.54;100.00;100716.69;5095102;28;20043;-80
2023/10/17 08:09:24;;;;;;;6.60;4.55;;;;;;;6.73;100.00;100725.00;5090317;28;20032;-83
2023/10/17 08:11:59;;;;;;;7.63;4.00;;;;;;;6.83;100.00;100715.06;5091176;28;20120;-80
2023/10/17 08:14:34;;;;;;;7.65;4.13;;;;;;;6.95;100.00;100707.69;5092757;28;20044;-81
2023/10/17 08:17:02;;;;;;;7.70;4.50;;;;;;;7.08;100.00;100728.44;5089689;28;20068;-83
2023/10/17 08:19:36;;;;;;;7.47;4.18;;;;;;;7.14;100.00;100729.13;5087476;28;20481;-81
2023/10/17 08:22:17;;;;;;;6.25;4.15;;;;;;;7.24;100.00;100729.75;5089174;28;20177;-83
2023/10/17 08:24:51;;;;;;;7.18;4.20;;;;;;;7.36;100.00;100740.81;5067028;28;20044;-80
2023/10/17 08:27:41;;;;;;;7.40;4.20;;;;;;;7.33;100.00;100732.97;5083496;28;20048;-83
2023/10/17 08:30:17;;;;;;;;;;;;;;;7.50;100.00;100747.44;5086670;28;20130;-82
2023/10/17 08:33:11;;;;;;;8.05;3.92;;;;;;;7.51;100.00;100736.00;5093794;28;19940;-80
2023/10/17 08:35:51;;;;;;;7.07;3.58;;;;;;;7.56;100.00;100741.97;5091199;28;20074;-81
2023/10/17 08:38:48;;;;;;;6.25;4.18;;;;;;;7.53;100.00;100742.09;5097491;28;20044;-82
2023/10/17 08:41:27;;;;;;;6.43;4.13;;;;;;;7.45;100.00;100717.72;5078538;28;20651;-79
2023/10/17 08:43:58;;;;;;;8.75;4.20;;;;;;;7.56;100.00;100723.53;5088368;28;20067;-82
2023/10/17 08:46:29;;;;;;;5.85;4.07;;;;;;;7.62;100.00;100740.06;5086073;28;20048;-82
2023/10/17 08:48:58;;;;;;;6.55;3.92;;;;;;;7.55;100.00;100719.22;5095129;28;20066;-81
2023/10/17 08:51:37;;;;;;;8.35;4.00;;;;;;;7.84;100.00;100745.56;5090785;28;20059;-81
2023/10/17 08:54:12;;;;;;;5.45;3.95;;;;;;;7.82;100.00;100741.22;5100684;28;20434;-82
2023/10/17 08:57:03;;;;;;;5.07;3.63;;;;;;;7.78;100.00;100748.38;5085428;28;20032;-82
2023/10/17 08:59:59;;;;;;;6.00;4.10;;;;;;;7.85;100.00;100743.78;5097115;28;20056;-83
2023/10/17 09:02:35;;;;;;;6.38;3.97;;;;;;;7.77;100.00;100708.88;5095284;28;20040;-83
2023/10/17 09:05:17;;;;;;;5.85;3.65;;;;;;;7.62;100.00;100671.53;5085054;28;20075;-82
2023/10/17 09:07:48;;;;;;;6.20;4.15;;;;;;;7.94;100.00;100728.53;5102011;28;20048;-80
2023/10/17 09:10:28;;;;;;;8.07;3.58;;;;;;;7.96;100.00;100731.13;5087447;28;20041;-82
2023/10/17 09:15:57;;;;;;;7.57;3.78;;;;;;;8.00;100.00;100725.72;5098803;28;20052;-81
2023/10/17 09:18:39;;;;;;;6.95;3.50;;;;;;;7.98;100.00;100709.06;5075007;28;20031;-78
2023/10/17 09:21:13;;;;;;;5.78;3.70;;;;;;;8.20;100.00;100727.69;5096118;28;20036;-78
2023/10/17 09:23:43;;;;;;;6.70;3.50;;;;;;;8.28;100.00;100720.44;5091577;28;20055;-78
2023/10/17 09:29:28;;;;;;;9.52;3.92;;;;;;;8.34;100.00;100707.03;5080337;28;20035;-80
2023/10/17 09:32:08;;;;;;;6.18;3.53;;;;;;;8.43;100.00;100711.19;5109512;28;20036;-78
2023/10/17 09:34:40;;;;;;;5.88;3.40;;;;;;;8.54;100.00;100718.72;5089573;28;20071;-81
2023/10/17 09:37:13;;;;;;;6.57;3.72;;;;;;;8.55;100.00;100700.19;5079797;28;20044;-82
2023/10/17 09:42:36;;;;;;;4.80;3.13;;;;;;;8.80;100.00;100718.72;5080472;28;20048;-82
2023/10/17 09:45:12;;;;;;;6.95;3.40;;;;;;;8.75;100.00;100695.09;5083507;28;20036;-82
2023/10/17 09:48:06;;;;;;;4.93;3.22;;;;;;;8.94;100.00;100697.97;5101613;28;20108;-82
2023/10/17 09:50:50;;;;;;;5.03;3.30;;;;;;;8.95;100.00;100694.41;5079030;28;20047;-81
2023/10/17 09:53:44;;;;;;;3.97;3.20;;;;;;;9.03;100.00;100702.91;5087826;28;20051;-80
2023/10/17 09:59:21;;;;;;;5.20;3.03;;;;;;;9.19;100.00;100703.22;5082836;28;20127;-82
2023/10/17 10:01:58;;;;;;;;;;;;;;;9.23;100.00;100715.41;5082101;28;20130;-83
2023/10/17 10:04:28;;;;;;;3.90;2.83;;;;;;;9.20;100.00;100699.66;5073724;28;20402;-80
2023/10/17 10:07:22;;;;;;;6.50;3.20;;;;;;;9.27;100.00;100706.47;5106138;28;20546;-82
2023/10/17 10:09:52;;;;;;;4.93;2.60;;;;;;;9.25;100.00;100692.44;5084748;28;20062;-80
2023/10/17 10:12:21;;;;;;;4.53;3.15;;;;;;;9.42;100.00;100695.34;5082369;28;20097;-80
2023/10/17 10:14:52;;;;;;;3.83;2.60;;;;;;;9.31;100.00;100665.78;5084773;28;20064;-81
2023/10/17 10:17:20;;;;;;;5.88;2.75;;;;;;;9.59;100.00;100701.75;5091510;28;20031;-80
2023/10/17 10:19:59;;;;;;;5.85;3.17;;;;;;;9.54;100.00;100683.41;5089374;28;20064;-78
2023/10/17 10:22:53;;;;;;;4.10;2.38;;;;;;;9.65;100.00;100680.34;5115284;28;20022;-78
2023/10/17 10:25:22;;;;;;;5.03;2.92;;;;;;;9.75;100.00;100700.25;5092868;28;20017;-80
2023/10/17 10:28:29;;;;;;;5.20;2.70;;;;;;;9.84;100.00;100700.75;5093938;28;20029;-79
2023/10/17 10:30:59;;;;;;;6.50;2.90;;;;;;;9.90;100.00;100696.16;5094108;28;20074;-80
2023/10/17 10:33:30;;;;;;;4.15;2.50;;;;;;;9.79;100.00;100667.47;5092510;28;20163;-81
2023/10/17 10:36:04;;;;;;;3.65;2.70;;;;;;;9.85;99.09;100667.22;5096277;28;20052;-81
2023/10/17 10:38:33;;;;;;;3.17;2.50;;;;;;;9.85;98.99;100659.28;5089290;28;20048;-81
2023/10/17 10:41:08;;;;;;;4.10;2.50;;;;;;;10.05;98.02;100682.31;5107743;28;20051;-81
2023/10/17 10:43:39;;;;;;;4.78;2.33;;;;;;;10.08;97.98;100684.81;5095275;28;20067;-82
2023/10/17 10:46:09;;;;;;;5.15;2.58;;;;;;;9.96;96.31;100659.72;5112975;28;20028;-81
2023/10/17 10:48:47;;;;;;;2.95;2.15;;;;;;;10.04;96.45;100676.16;5104625;28;20051;-80
2023/10/17 10:51:19;;;;;;;3.42;2.33;;;;;;;9.96;94.71;100656.22;5102598;28;20041;-81
2023/10/17 10:53:54;;;;;;;3.72;2.67;;;;;;;10.10;96.01;100667.94;5095360;28;20063;-81
2023/10/17 10:56:26;;;;;;;5.13;2.25;;;;;;;10.09;95.54;100660.06;5088723;28;20040;-79
2023/10/17 10:58:56;;;;;;;3.67;2.75;;;;;;;10.05;93.25;100653.22;5086126;28;20047;-80
2023/10/17 11:01:27;;;;;;;6.10;2.25;;;;;;;10.03;94.90;100652.41;5087517;28;20044;-78
2023/10/17 11:03:59;;;;;;;4.05;2.42;;;;;;;10.02;92.81;100654.19;5086534;28;20068;-82
2023/10/17 11:06:35;;;;;;;4.28;2.58;;;;;;;10.03;92.20;100645.34;5078444;28;20070;-82
2023/10/17 11:09:09;;;;;;;4.53;2.72;;;;;;;9.88;91.87;100592.19;5081521;28;20052;-80
2023/10/17 11:11:44;;;;;;;4.78;2.60;;;;;;;10.06;94.52;100624.03;5087829;28;20035;-81
2023/10/17 11:14:16;;;;;;;4.32;2.45;;;;;;;10.01;95.63;100612.78;5083225;28;20044;-82
2023/10/17 11:16:50;;;;;;;3.50;2.40;;;;;;;9.94;96.10;100610.44;5081425;28;20048;-82
2023/10/17 11:19:21;;;;;;;5.45;2.72;;;;;;;9.98;95.80;100620.84;5083485;28;20036;-81
2023/10/17 11:21:57;;;;;;;4.47;2.60;;;;;;;9.73;97.27;100585.75;5086611;28;20047;-81
2023/10/17 11:24:29;;;;;;;5.18;2.35;;;;;;;9.77;98.71;100597.88;5094115;28;20028;-79
2023/10/17 11:26:59;;;;;;;4.43;2.60;;;;;;;9.50;98.56;100560.22;5100716;28;20058;-77
2023/10/17 11:29:30;;;;;;;4.40;2.60;;;;;;;9.72;98.37;100586.66;5095413;28;20088;-79
2023/10/17 11:32:01;;;;;;;4.72;2.35;;;;;;;9.69;96.81;100592.06;5120679;28;20045;-79
2023/10/17 11:34:33;;;;;;;3.90;2.55;;;;;;;9.44;98.12;100553.38;5090666;28;20044;-82
2023/10/17 11:37:11;;;;;;;4.18;2.05;;;;;;;9.69;96.70;100590.28;5090654;28;20059;-82
2023/10/17 11:39:42;;;;;;;3.55;2.25;;;;;;;9.80;95.31;100584.56;5090750;28;20040;-79
2023/10/17 11:42:33;;;;;;;6.25;2.53;;;;;;;9.94;95.22;100584.84;5088986;28;20043;-82
2023/10/17 11:45:18;;;;;;;4.43;2.65;;;;;;;10.06;93.16;100571.13;5109347;28;20823;-82
2023/10/17 11:48:14;;;;;;;6.20;2.55;;;;;;;10.25;91.00;100565.91;5088705;28;20063;-83
2023/10/17 11:50:44;;;;;;;5.05;2.75;;;;;;;10.34;90.45;100560.25;5058698;28;20072;-81
2023/10/17 11:53:14;;;;;;;4.15;2.30;;;;;;;10.66;87.43;100579.16;5087324;28;20044;-81
2023/10/17 11:55:45;;;;;;;4.57;2.22;;;;;;;10.70;86.97;100549.84;5090089;28;20059;-81
2023/10/17 11:58:24;;;;;;;4.75;2.30;;;;;;;10.90;84.48;100549.75;5081867;28;20040;-82
2023/10/17 12:00:55;;;;;;;5.20;2.22;;;;;;;11.13;81.87;100577.00;5077659;28;20036;-82
2023/10/17 12:03:26;;;;;;;4.50;2.05;;;;;;;10.98;82.69;100565.31;5079776;28;20070;-82
2023/10/17 12:05:55;;;;;;;3.45;2.20;;;;;;;10.88;84.20;100572.81;5069095;28;20074;-81
2023/10/17 12:08:29;;;;;;;4.05;2.00;;;;;;;10.76;84.58;100552.19;5085819;28;20101;-82
2023/10/17 12:10:58;;;;;;;4.10;2.10;;;;;;;10.92;86.75;100562.09;5089430;28;20048;-82
2023/10/17 12:13:28;;;;;;;4.13;2.10;;;;;;;11.11;84.43;100555.88;5074237;28;20044;-83
2023/10/17 12:16:02;;;;;;;4.63;2.33;;;;;;;11.24;82.72;100548.19;5088871;28;20531;-82
2023/10/17 12:18:31;;;;;;;2.75;2.20;;;;;;;11.38;79.26;100553.69;5085891;28;20048;-81
2023/10/17 12:21:01;;;;;;;4.32;2.47;;;;;;;11.40;76.01;100551.84;5093745;28;20066;-80
2023/10/17 12:23:32;;;;;;;2.88;2.13;;;;;;;11.38;76.14;100540.44;5104727;28;20044;-81
2023/10/17 12:26:07;;;;;;;3.45;2.30;;;;;;;11.50;76.68;100552.25;5095085;28;20059;-81
2023/10/17 12:28:36;;;;;;;7.63;2.30;;;;;;;11.52;75.22;100539.78;5109575;28;20044;-82
2023/10/17 12:31:04;;;;;;;3.42;1.98;;;;;;;11.74;73.88;100558.16;5090384;28;20492;-81
2023/10/17 12:33:34;;;;;;;3.55;2.15;;;;;;;11.73;70.75;100548.50;5090264;28;20126;-82
2023/10/17 12:36:06;;;;;;;3.97;2.20;;;;;;;11.68;72.52;100526.63;5083899;28;20044;-81
2023/10/17 12:38:38;;;;;;;4.93;2.20;;;;;;;11.77;72.87;100537.69;5084046;28;20112;-83
2023/10/17 12:41:07;;;;;;;4.00;2.15;;;;;;;11.75;70.99;100522.75;5078923;28;20480;-82
2023/10/17 12:43:36;;;;;;;4.25;2.08;;;;;;;11.75;72.11;100513.00;5080321;28;20071;-81
2023/10/17 12:46:07;;;;;;;6.13;2.05;;;;;;;11.94;71.40;100532.41;5082766;28;20476;-82
2023/10/17 12:48:36;;;;;;;2.88;2.03;;;;;;;11.91;69.31;100534.34;5082753;28;20078;-81
2023/10/17 12:51:11;;;;;;;3.13;2.08;;;;;;;11.85;71.23;100527.53;5077531;28;20063;-82
2023/10/17 12:53:44;;;;;;;3.72;2.25;;;;;;;11.87;70.32;100519.50;5082184;28;20097;-81
2023/10/17 12:56:20;;;;;;;6.03;2.10;;;;;;;11.97;71.02;100533.16;5106854;28;20075;-81
2023/10/17 12:58:49;;;;;;;3.05;2.05;;;;;;;12.03;69.33;100531.06;5079716;28;20044;-79
2023/10/17 13:01:21;;;;;;;3.10;2.05;;;;;;;12.05;69.23;100536.31;5091269;28;20036;-82
2023/10/17 13:03:57;;;;;;;4.15;2.00;;;;;;;12.07;70.15;100529.97;5109208;28;20141;-81
2023/10/17 13:06:27;;;;;;;2.47;1.65;;;;;;;11.99;70.73;100505.63;5089811;28;20048;-80
2023/10/17 13:08:57;;;;;;;3.22;1.80;;;;;;;12.15;69.65;100518.97;5086258;28;20056;-81
2023/10/17 13:11:33;;;;;;;4.67;1.93;;;;;;;11.95;70.30;100477.53;5106817;28;20036;-81
2023/10/17 13:14:03;;;;;;;4.60;2.00;;;;;;;12.17;69.63;100509.97;5079989;28;20120;-81
2023/10/17 13:16:33;;;;;;;5.50;2.30;;;;;;;12.20;68.28;100515.13;5062240;28;20066;-80
2023/10/17 13:19:06;;;;;;;3.47;1.80;;;;;;;12.22;68.03;100510.63;5096438;28;20063;-79
2023/10/17 13:21:37;;;;;;;4.43;2.00;;;;;;;12.08;66.27;100483.94;5108543;28;20032;-81
2023/10/17 13:24:14;;;;;;;3.97;1.92;;;;;;;12.18;66.78;100497.56;5100067;28;20096;-79
2023/10/17 13:26:47;;;;;;;3.63;2.03;;;;;;;12.28;66.77;100502.31;5093262;28;20048;-81
2023/10/17 13:29:17;;;;;;;4.10;2.20;;;;;;;12.11;66.91;100467.84;5114212;28;20042;-82
2023/10/17 13:31:49;;;;;;;3.05;2.10;;;;;;;12.34;66.14;100501.13;5094991;28;20036;-81